Time;durP1;ratioP1;P1;durP2;ratioP2;P2;SDS_P1;SDS_P2;PMS_P1;PMS_P2;Temp;Humidity;BMP_temperature;BMP_pressure;BME280_temperature;BME280_humidity;BME280_pressure;Samples;Min_cycle;Max_cycle;Signal;HPM_P1;HPM_P2
2023/01/26 00:01:10;;;;;;;34.25;17.40;;;1.10;99.90;;;;;;4808988;29;20046;-88
2023/01/26 00:03:36;;;;;;;33.42;17.27;;;1.10;99.90;;;;;;4808715;29;20046;-88
2023/01/26 00:06:06;;;;;;;32.80;17.42;;;1.10;99.90;;;;;;4809358;29;20407;-88
2023/01/26 00:08:42;;;;;;;33.08;17.15;;;1.10;99.90;;;;;;4824855;29;20088;-89
2023/01/26 00:11:10;;;;;;;30.02;16.13;;;1.10;99.90;;;;;;4824757;29;20046;-89
2023/01/26 00:13:35;;;;;;;30.38;16.13;;;1.10;99.90;;;;;;4825372;29;20035;-89
2023/01/26 00:16:02;;;;;;;31.63;16.55;;;1.10;99.90;;;;;;4824997;29;20050;-89
2023/01/26 00:18:28;;;;;;;32.97;16.27;;;1.10;99.90;;;;;;4808210;29;20419;-88
2023/01/26 00:20:59;;;;;;;29.40;16.17;;;1.10;99.90;;;;;;4808779;29;20058;-89
2023/01/26 00:23:25;;;;;;;32.30;16.55;;;1.10;99.90;;;;;;4820923;29;20042;-89
2023/01/26 00:25:51;;;;;;;29.70;16.25;;;1.10;99.90;;;;;;4807998;29;20042;-89
2023/01/26 00:28:16;;;;;;;28.95;15.60;;;1.20;99.90;;;;;;4808598;29;20061;-89
2023/01/26 00:30:42;;;;;;;31.33;16.45;;;1.20;99.90;;;;;;4809259;29;20080;-87
2023/01/26 00:33:08;;;;;;;28.17;15.30;;;1.20;99.90;;;;;;4807929;29;20081;-89
2023/01/26 00:35:33;;;;;;;30.88;15.93;;;1.20;99.90;;;;;;4808330;29;20412;-88
2023/01/26 00:37:59;;;;;;;29.05;15.68;;;1.20;99.90;;;;;;4825030;29;20050;-88
2023/01/26 00:40:25;;;;;;;27.80;15.15;;;1.20;99.90;;;;;;4807585;29;20412;-89
2023/01/26 00:42:53;;;;;;;32.22;15.85;;;1.20;99.90;;;;;;4824850;29;20042;-88
2023/01/26 00:45:19;;;;;;;30.70;16.08;;;1.20;99.90;;;;;;4824413;29;20107;-88
2023/01/26 00:47:45;;;;;;;31.55;16.48;;;1.20;99.90;;;;;;4823903;29;20456;-88
2023/01/26 00:50:12;;;;;;;31.90;15.52;;;1.20;99.90;;;;;;4808360;29;20148;-89
2023/01/26 00:52:38;;;;;;;29.92;15.93;;;1.20;99.90;;;;;;4823834;29;20066;-88
2023/01/26 00:55:04;;;;;;;27.75;15.35;;;1.20;99.90;;;;;;4824729;29;20054;-89
2023/01/26 00:57:30;;;;;;;29.27;15.73;;;1.20;99.90;;;;;;4824555;29;20053;-88
2023/01/26 00:59:55;;;;;;;34.65;17.50;;;1.20;99.90;;;;;;4823544;29;20046;-88
2023/01/26 01:02:21;;;;;;;29.17;15.88;;;1.20;99.90;;;;;;4824141;29;20118;-88
2023/01/26 01:04:46;;;;;;;32.28;16.50;;;1.20;99.90;;;;;;4824343;29;20182;-89
2023/01/26 01:07:12;;;;;;;29.85;15.88;;;1.20;99.90;;;;;;4807537;29;20369;-89
2023/01/26 01:09:40;;;;;;;28.13;14.90;;;1.30;99.90;;;;;;4824267;29;20126;-89
2023/01/26 01:12:06;;;;;;;28.73;15.70;;;1.20;99.90;;;;;;4808825;29;20055;-89
2023/01/26 01:14:32;;;;;;;31.27;16.27;;;1.30;99.90;;;;;;4824063;29;20054;-89
2023/01/26 01:16:57;;;;;;;27.90;14.90;;;1.30;99.90;;;;;;4824731;29;20042;-90
2023/01/26 01:19:23;;;;;;;30.50;16.10;;;1.30;99.90;;;;;;4811975;29;20051;-89
2023/01/26 01:21:49;;;;;;;30.65;15.18;;;1.30;99.90;;;;;;4804981;29;20137;-89
2023/01/26 01:24:15;;;;;;;29.65;15.63;;;1.30;99.90;;;;;;4824126;29;20051;-89
2023/01/26 01:26:42;;;;;;;30.50;16.27;;;1.30;99.90;;;;;;4824555;29;20046;-89
2023/01/26 01:29:13;;;;;;;27.70;15.45;;;1.40;99.90;;;;;;4807484;29;20046;-89
2023/01/26 01:31:42;;;;;;;27.95;14.43;;;1.40;99.90;;;;;;4824792;29;20102;-89
2023/01/26 01:34:08;;;;;;;28.85;14.85;;;1.40;99.90;;;;;;4807345;29;20097;-89
2023/01/26 01:36:34;;;;;;;24.25;14.18;;;1.40;99.90;;;;;;4807024;29;20059;-90
2023/01/26 01:39:00;;;;;;;27.75;14.52;;;1.40;99.90;;;;;;4824394;29;20105;-90
2023/01/26 01:41:26;;;;;;;28.15;14.38;;;1.30;99.90;;;;;;4808151;29;20050;-89
2023/01/26 01:44:16;;;;;;;27.25;14.48;;;1.30;99.90;;;;;;4821828;29;20099;-89
2023/01/26 01:46:50;;;;;;;25.95;14.10;;;1.40;99.90;;;;;;4823824;29;20494;-89
2023/01/26 01:49:19;;;;;;;27.92;14.35;;;1.30;99.90;;;;;;4807047;29;20053;-88
2023/01/26 01:52:04;;;;;;;25.85;13.77;;;1.30;99.90;;;;;;4807863;29;20122;-87
2023/01/26 01:54:40;;;;;;;27.13;13.90;;;1.30;99.90;;;;;;4807284;29;20065;-88
2023/01/26 01:57:14;;;;;;;23.48;12.52;;;1.30;99.90;;;;;;4807579;29;20548;-88
2023/01/26 01:59:53;;;;;;;;;;;1.40;99.90;;;;;;4807728;29;20104;-88
2023/01/26 02:02:19;;;;;;;24.00;12.80;;;1.30;99.90;;;;;;4823580;29;19932;-88
2023/01/26 02:04:45;;;;;;;24.40;12.90;;;1.30;99.90;;;;;;4806571;29;20115;-88
2023/01/26 02:07:11;;;;;;;25.98;13.85;;;1.30;99.90;;;;;;4807416;29;20054;-88
2023/01/26 02:12:32;;;;;;;22.45;12.00;;;1.30;99.90;;;;;;4802077;29;20119;-88
2023/01/26 02:15:00;;;;;;;26.60;13.13;;;1.30;99.90;;;;;;4807331;29;20500;-88
2023/01/26 02:17:25;;;;;;;25.52;13.55;;;1.30;99.90;;;;;;4823790;29;20471;-88
2023/01/26 02:20:03;;;;;;;22.50;12.30;;;1.30;99.90;;;;;;4823974;29;20114;-88
2023/01/26 02:22:28;;;;;;;23.20;12.40;;;1.30;99.90;;;;;;4823760;29;20054;-88
2023/01/26 02:25:01;;;;;;;22.90;12.50;;;1.30;99.90;;;;;;4804588;29;20042;-88
2023/01/26 02:27:27;;;;;;;25.83;13.10;;;1.30;99.90;;;;;;4807115;29;20079;-87
2023/01/26 02:29:55;;;;;;;24.98;13.07;;;1.30;99.90;;;;;;4807054;29;20042;-88
2023/01/26 02:32:21;;;;;;;23.48;12.95;;;1.40;99.90;;;;;;4807103;29;20054;-89
2023/01/26 02:34:48;;;;;;;21.33;12.18;;;1.30;99.90;;;;;;4807948;29;20047;-88
2023/01/26 02:37:14;;;;;;;22.63;11.63;;;1.40;99.90;;;;;;4807963;29;20053;-88
2023/01/26 02:39:59;;;;;;;22.42;12.35;;;1.40;99.90;;;;;;4823103;29;20042;-88
2023/01/26 02:42:37;;;;;;;24.00;12.23;;;1.40;99.90;;;;;;4812579;29;20463;-88
2023/01/26 02:45:05;;;;;;;21.17;11.48;;;1.40;99.90;;;;;;4822990;29;20487;-88
2023/01/26 02:47:30;;;;;;;23.67;13.23;;;1.30;99.90;;;;;;4806487;29;20173;-88
2023/01/26 02:49:57;;;;;;;23.05;12.43;;;1.30;99.90;;;;;;4810293;29;20579;-88
2023/01/26 02:52:29;;;;;;;23.20;12.10;;;1.40;99.90;;;;;;4823436;29;20046;-88
2023/01/26 02:57:40;;;;;;;24.67;12.68;;;1.40;99.90;;;;;;4810658;29;20062;-88
2023/01/26 03:00:23;;;;;;;22.75;12.13;;;1.40;99.90;;;;;;4809717;29;20057;-88
2023/01/26 03:02:51;;;;;;;21.88;11.30;;;1.40;99.90;;;;;;4825683;29;20043;-88
2023/01/26 03:05:17;;;;;;;24.58;12.07;;;1.30;99.90;;;;;;4826550;29;20050;-88
2023/01/26 03:07:42;;;;;;;23.40;12.30;;;1.40;99.90;;;;;;4825176;29;20046;-88
2023/01/26 03:10:09;;;;;;;22.17;11.45;;;1.40;99.90;;;;;;4809957;29;20065;-88
2023/01/26 03:12:34;;;;;;;21.20;11.85;;;1.40;99.90;;;;;;4826393;29;20129;-89
2023/01/26 03:17:45;;;;;;;22.90;11.43;;;1.40;99.90;;;;;;4826523;29;20046;-89
2023/01/26 03:28:25;;;;;;;20.98;10.90;;;1.40;99.90;;;;;;4794016;29;20046;-88
2023/01/26 03:30:56;;;;;;;23.55;12.00;;;1.40;99.90;;;;;;4824369;29;20046;-89
2023/01/26 03:33:23;;;;;;;23.35;12.13;;;1.40;99.90;;;;;;4816026;29;20054;-89
2023/01/26 03:35:52;;;;;;;20.98;11.32;;;1.40;99.90;;;;;;4795219;29;20472;-88
2023/01/26 03:57:13;;;;;;;22.75;11.32;;;1.50;99.90;;;;;;4791277;29;20420;-88
2023/01/26 03:59:39;;;;;;;20.83;11.35;;;1.50;99.90;;;;;;4794092;29;20057;-88
2023/01/26 04:10:26;;;;;;;20.38;11.13;;;1.60;99.90;;;;;;4810451;29;20073;-88
2023/01/26 04:21:47;;;;;;;19.17;10.48;;;1.60;99.90;;;;;;4794425;29;20110;-88
2023/01/26 04:24:21;;;;;;;19.50;10.32;;;1.60;99.90;;;;;;4804992;29;20142;-88
2023/01/26 04:26:47;;;;;;;18.73;10.68;;;1.60;99.90;;;;;;4807446;29;20134;-88
2023/01/26 04:29:14;;;;;;;18.27;10.65;;;1.60;99.90;;;;;;4806856;29;20133;-88
2023/01/26 04:31:41;;;;;;;20.73;10.73;;;1.60;99.90;;;;;;4806728;29;20500;-88
2023/01/26 04:34:12;;;;;;;21.10;10.77;;;1.60;99.90;;;;;;4791092;29;20043;-87
2023/01/26 04:36:38;;;;;;;19.00;10.40;;;1.60;99.90;;;;;;4790972;29;20050;-88
2023/01/26 04:39:04;;;;;;;17.65;9.38;;;1.60;99.90;;;;;;4789866;29;20049;-88
2023/01/26 04:41:31;;;;;;;18.73;10.25;;;1.60;99.90;;;;;;4806850;29;20046;-88
2023/01/26 04:43:57;;;;;;;17.13;9.38;;;1.60;99.90;;;;;;4805124;29;20049;-88
2023/01/26 04:46:25;;;;;;;19.52;10.90;;;1.60;99.90;;;;;;4789151;29;20051;-88
2023/01/26 04:48:51;;;;;;;19.98;10.23;;;1.60;99.90;;;;;;4788563;29;20090;-87
2023/01/26 04:51:19;;;;;;;19.15;10.02;;;1.60;99.90;;;;;;4806723;29;20408;-87
2023/01/26 04:53:45;;;;;;;18.30;10.15;;;1.60;99.90;;;;;;4783705;29;20043;-88
2023/01/26 04:56:26;;;;;;;17.33;9.70;;;1.60;99.90;;;;;;4806881;29;20420;-88
2023/01/26 04:58:53;;;;;;;19.20;9.95;;;1.70;99.90;;;;;;4789628;29;20496;-88
2023/01/26 05:01:19;;;;;;;21.00;11.35;;;1.60;99.90;;;;;;4806118;29;20049;-89
2023/01/26 05:03:45;;;;;;;21.13;10.43;;;1.60;99.90;;;;;;4862053;24;20062;-85
2023/01/26 05:06:11;;;;;;;18.60;9.10;;;1.60;99.90;;;;;;4824532;29;20563;-85
2023/01/26 05:08:37;;;;;;;14.70;8.45;;;1.70;99.90;;;;;;4825176;29;20038;-85
2023/01/26 05:11:05;;;;;;;16.85;9.48;;;1.70;99.90;;;;;;4821038;29;20043;-84
2023/01/26 05:13:31;;;;;;;19.58;10.25;;;1.70;99.90;;;;;;4799187;29;20069;-89
2023/01/26 05:19:24;;;;;;;17.20;9.15;;;1.70;99.90;;;;;;4804691;29;20111;-87
2023/01/26 05:21:50;;;;;;;19.58;10.50;;;1.70;99.90;;;;;;4809020;24;20450;-87
2023/01/26 05:24:56;;;;;;;16.35;8.63;;;1.70;99.90;;;;;;4785798;29;20062;-87
2023/01/26 05:27:27;;;;;;;18.27;10.35;;;1.70;99.90;;;;;;4781121;29;20536;-85
2023/01/26 05:29:59;;;;;;;18.40;9.55;;;1.70;99.90;;;;;;4788487;29;20051;-87
2023/01/26 05:32:34;;;;;;;15.45;9.18;;;1.60;99.90;;;;;;4787091;30;20054;-87
2023/01/26 05:35:12;;;;;;;20.67;10.55;;;1.70;99.90;;;;;;4753874;30;20505;-87
2023/01/26 05:37:49;;;;;;;22.38;11.48;;;1.70;99.90;;;;;;4780624;29;20104;-87
2023/01/26 05:40:18;;;;;;;18.80;9.82;;;1.70;99.90;;;;;;4753793;30;20058;-87
2023/01/26 05:42:43;;;;;;;15.23;7.95;;;1.70;99.90;;;;;;4764646;30;20056;-87
2023/01/26 05:45:15;;;;;;;17.70;9.23;;;1.70;99.90;;;;;;4754609;30;20128;-86
2023/01/26 05:47:44;;;;;;;18.17;10.23;;;1.70;99.90;;;;;;4784969;29;20039;-87
2023/01/26 05:50:21;;;;;;;19.10;10.45;;;1.70;99.90;;;;;;4798929;29;20408;-87
2023/01/26 05:52:50;;;;;;;20.48;11.20;;;1.80;99.90;;;;;;4799086;24;20084;-86
2023/01/26 05:55:19;;;;;;;16.75;9.27;;;1.70;99.90;;;;;;4788758;29;20408;-87
2023/01/26 05:57:44;;;;;;;16.38;9.30;;;1.70;99.90;;;;;;4787072;29;20130;-85
2023/01/26 06:00:11;;;;;;;16.48;8.80;;;1.70;99.90;;;;;;4785966;30;20146;-85
2023/01/26 06:02:39;;;;;;;17.17;9.02;;;1.70;99.90;;;;;;4781601;29;20058;-85
2023/01/26 06:05:05;;;;;;;18.58;9.80;;;1.70;99.90;;;;;;4788966;29;20106;-85
2023/01/26 06:07:31;;;;;;;17.30;9.25;;;1.80;99.90;;;;;;4788504;29;20047;-85
2023/01/26 06:09:57;;;;;;;18.80;9.75;;;1.70;99.90;;;;;;4803275;29;20111;-85
2023/01/26 06:12:23;;;;;;;19.88;10.05;;;1.80;99.90;;;;;;4789586;29;20085;-85
2023/01/26 06:14:53;;;;;;;15.40;8.43;;;1.70;99.90;;;;;;4792911;29;20042;-86
2023/01/26 06:17:19;;;;;;;18.65;8.88;;;1.80;99.90;;;;;;4804938;29;20043;-86
2023/01/26 06:19:45;;;;;;;18.52;9.52;;;1.80;99.90;;;;;;4781233;29;20049;-86
2023/01/26 06:22:15;;;;;;;18.75;9.75;;;1.80;99.90;;;;;;4789305;29;20053;-86
2023/01/26 06:24:40;;;;;;;18.98;9.50;;;1.80;99.90;;;;;;4806454;29;20051;-86
2023/01/26 06:27:11;;;;;;;19.52;9.80;;;1.80;99.90;;;;;;4792983;29;20142;-86
2023/01/26 06:29:36;;;;;;;18.35;8.98;;;1.80;99.90;;;;;;4807975;29;20107;-86
2023/01/26 06:32:02;;;;;;;17.00;9.05;;;1.80;99.90;;;;;;4807025;29;20043;-85
2023/01/26 06:34:28;;;;;;;17.42;9.00;;;1.90;99.90;;;;;;4793018;29;20508;-86
2023/01/26 06:36:53;;;;;;;20.05;10.10;;;1.90;99.90;;;;;;4792786;29;20097;-86
2023/01/26 06:42:20;;;;;;;14.85;8.57;;;1.90;99.90;;;;;;4792111;29;20055;-86
2023/01/26 06:44:48;;;;;;;18.25;9.32;;;1.90;99.90;;;;;;4791163;29;20464;-87
2023/01/26 06:47:17;;;;;;;17.90;9.52;;;1.90;99.90;;;;;;4807542;29;20061;-85
2023/01/26 06:49:42;;;;;;;16.48;8.52;;;1.90;99.90;;;;;;4808956;29;20104;-85
2023/01/26 06:52:31;;;;;;;17.50;9.10;;;1.90;99.90;;;;;;4790998;29;20401;-85
2023/01/26 06:55:01;;;;;;;16.88;9.48;;;1.90;99.90;;;;;;4783168;29;20110;-85
2023/01/26 06:57:27;;;;;;;15.57;8.70;;;2.00;99.90;;;;;;4792856;29;20484;-85
2023/01/26 07:00:18;;;;;;;19.80;9.60;;;2.00;99.90;;;;;;4806357;29;20389;-85
2023/01/26 07:02:44;;;;;;;17.27;8.55;;;2.00;99.90;;;;;;4804768;29;20055;-85
2023/01/26 07:05:09;;;;;;;15.57;9.10;;;2.00;99.90;;;;;;4790901;29;20047;-85
2023/01/26 07:07:38;;;;;;;16.83;9.40;;;2.00;99.90;;;;;;4807403;29;20047;-86
2023/01/26 07:10:10;;;;;;;22.55;10.30;;;2.00;99.90;;;;;;4808315;29;20047;-86
2023/01/26 07:12:44;;;;;;;19.25;9.00;;;2.00;99.90;;;;;;4788118;29;20059;-86
2023/01/26 07:18:32;;;;;;;22.50;11.60;;;2.00;99.90;;;;;;4824311;29;20441;-85
2023/01/26 07:21:06;;;;;;;21.25;10.70;;;2.00;99.90;;;;;;4820928;29;20080;-86
2023/01/26 07:23:49;;;;;;;22.13;10.30;;;2.00;99.90;;;;;;4809160;29;20061;-86
2023/01/26 07:29:23;;;;;;;18.23;9.05;;;2.00;99.90;;;;;;4828249;29;20049;-84
2023/01/26 07:32:01;;;;;;;18.17;9.65;;;1.90;99.90;;;;;;4832456;29;20038;-85
2023/01/26 07:34:30;;;;;;;20.15;10.27;;;2.00;99.90;;;;;;4809740;29;20539;-86
2023/01/26 07:37:19;;;;;;;20.30;9.85;;;1.90;99.90;;;;;;4824580;29;20458;-86
2023/01/26 07:40:05;;;;;;;21.02;10.93;;;1.90;99.90;;;;;;4809500;29;20060;-86
2023/01/26 07:42:31;;;;;;;21.40;9.73;;;1.90;99.90;;;;;;4808289;29;20076;-86
2023/01/26 07:45:21;;;;;;;18.60;9.35;;;2.00;99.90;;;;;;4825794;29;20400;-86
2023/01/26 07:47:54;;;;;;;18.77;9.13;;;1.90;99.90;;;;;;4808918;29;20057;-86
2023/01/26 07:50:20;;;;;;;;;;;2.00;99.90;;;;;;4810597;29;20440;-86
2023/01/26 07:52:49;;;;;;;18.38;8.50;;;1.90;99.90;;;;;;4825265;29;19925;-86
2023/01/26 07:55:24;;;;;;;20.20;9.07;;;1.90;99.90;;;;;;4821933;29;20054;-86
2023/01/26 08:00:52;;;;;;;16.77;8.88;;;1.90;99.90;;;;;;4834080;24;20539;-87
2023/01/26 08:03:18;;;;;;;17.30;9.07;;;1.90;99.90;;;;;;4808125;29;20470;-88
2023/01/26 08:06:08;;;;;;;17.58;8.73;;;1.90;99.90;;;;;;4825841;29;20138;-88
2023/01/26 08:11:06;;;;;;;20.17;9.45;;;1.90;99.90;;;;;;4847084;23;21158;-88
2023/01/26 08:13:57;;;;;;;19.83;9.32;;;1.80;99.90;;;;;;4796220;29;20061;-88
2023/01/26 08:16:46;;;;;;;19.90;9.20;;;1.90;99.90;;;;;;4824310;29;20074;-88
2023/01/26 08:19:44;;;;;;;19.17;9.18;;;1.90;99.90;;;;;;4809054;29;20050;-87
2023/01/26 08:22:28;;;;;;;19.80;9.20;;;1.80;99.90;;;;;;4807692;29;20047;-89
2023/01/26 08:24:57;;;;;;;17.75;8.95;;;1.80;99.90;;;;;;4818344;29;20054;-89
2023/01/26 08:27:25;;;;;;;20.38;9.13;;;1.90;99.90;;;;;;4813235;24;20064;-88
2023/01/26 08:29:55;;;;;;;18.30;9.05;;;1.80;99.90;;;;;;4806711;29;20265;-89
2023/01/26 08:32:20;;;;;;;18.23;8.75;;;1.80;99.90;;;;;;4805629;29;20065;-88
2023/01/26 08:37:48;;;;;;;18.88;8.50;;;1.80;99.90;;;;;;4800482;29;20137;-87
2023/01/26 08:40:15;;;;;;;23.58;9.00;;;1.80;99.90;;;;;;4818102;24;20073;-87
2023/01/26 08:42:41;;;;;;;25.63;8.30;;;1.80;99.90;;;;;;4823665;29;20054;-87
2023/01/26 08:45:28;;;;;;;28.50;9.35;;;1.80;99.90;;;;;;4824487;29;20038;-87
2023/01/26 08:47:54;;;;;;;19.17;8.23;;;1.80;99.90;;;;;;4824806;29;20046;-87
2023/01/26 08:50:20;;;;;;;23.60;8.48;;;1.90;99.90;;;;;;4808078;29;20391;-87
2023/01/26 08:53:01;;;;;;;28.60;8.05;;;1.80;99.90;;;;;;4799469;29;20066;-87
2023/01/26 08:55:31;;;;;;;33.33;7.95;;;1.90;99.90;;;;;;4805895;29;20051;-87
2023/01/26 08:58:28;;;;;;;36.65;7.63;;;1.90;99.90;;;;;;4820554;29;20110;-86
2023/01/26 09:00:56;;;;;;;38.38;8.02;;;2.00;99.90;;;;;;4825550;29;20389;-87
2023/01/26 09:03:25;;;;;;;36.05;7.25;;;2.10;99.90;;;;;;4807988;29;20396;-87
2023/01/26 09:06:13;;;;;;;49.35;8.95;;;2.10;99.90;;;;;;4824292;29;20053;-87
2023/01/26 09:08:46;;;;;;;30.35;7.45;;;2.20;99.90;;;;;;4808603;29;20472;-86
2023/01/26 09:11:12;;;;;;;48.88;8.63;;;2.30;99.90;;;;;;4807601;29;20103;-87
2023/01/26 09:13:41;;;;;;;55.08;8.23;;;2.40;99.90;;;;;;4807571;29;20089;-87
2023/01/26 09:16:16;;;;;;;28.38;6.65;;;2.50;99.90;;;;;;4808336;29;20133;-86
2023/01/26 09:18:41;;;;;;;33.58;7.13;;;2.50;99.90;;;;;;4807136;29;20077;-87
2023/01/26 09:21:08;;;;;;;45.15;8.15;;;2.60;99.90;;;;;;4807317;29;20411;-87
2023/01/26 09:23:37;;;;;;;51.63;8.27;;;2.60;99.90;;;;;;4808472;29;20051;-88
2023/01/26 09:26:22;;;;;;;;;;;;;;;;;;;;;
2023/01/26 09:29:03;;;;;;;33.88;6.72;;;2.70;99.90;;;;;;4753749;30;20138;-88
2023/01/26 09:31:50;;;;;;;45.05;7.53;;;2.80;99.90;;;;;;4767814;30;20181;-89
2023/01/26 09:35:02;;;;;;;42.10;7.13;;;2.80;99.90;;;;;;4767309;30;20078;-88
2023/01/26 09:37:28;;;;;;;62.25;8.38;;;2.90;99.90;;;;;;4832399;24;20038;-89
2023/01/26 09:40:38;;;;;;;42.67;7.07;;;3.00;99.90;;;;;;4807859;29;20388;-88
2023/01/26 09:43:40;;;;;;;51.67;7.32;;;3.00;99.90;;;;;;4827568;29;20058;-89
2023/01/26 09:46:41;;;;;;;36.17;6.30;;;3.10;99.90;;;;;;4824663;29;20054;-90
2023/01/26 09:49:31;;;;;;;50.55;6.00;;;3.30;99.90;;;;;;4831985;29;20046;-89
2023/01/26 09:52:26;;;;;;;50.58;6.00;;;3.40;99.90;;;;;;4816411;29;20061;-89
2023/01/26 09:58:32;;;;;;;53.97;6.10;;;3.60;99.90;;;;;;4822965;29;20183;-89
2023/01/26 10:01:25;;;;;;;30.23;5.22;;;3.70;99.90;;;;;;4825847;29;20050;-89
2023/01/26 10:04:47;;;;;;;;;;;;;;;;;;;;;
2023/01/26 10:10:46;;;;;;;;;;;;;;;;;;;;;
2023/01/26 10:20:31;;;;;;;;;;;;;;;;;;;;;
2023/01/26 10:27:55;;;;;;;43.10;5.68;;;4.50;99.90;;;;;;4823738;29;20284;-91
2023/01/26 10:34:28;;;;;;;40.10;5.15;;;4.70;99.90;;;;;;4785317;29;20055;-90
2023/01/26 10:50:30;;;;;;;41.47;5.15;;;5.30;99.90;;;;;;5412486;23;20176;-88
2023/01/26 10:55:35;;;;;;;42.17;4.78;;;5.50;99.90;;;;;;4828082;24;20534;-88
2023/01/26 11:03:06;;;;;;;37.97;4.35;;;5.60;99.90;;;;;;4789660;29;20105;-88
2023/01/26 11:05:54;;;;;;;40.63;4.82;;;5.70;99.90;;;;;;4792941;29;20055;-88
2023/01/26 11:08:41;;;;;;;44.13;4.07;;;5.70;99.90;;;;;;4772166;29;20055;-88
2023/01/26 11:40:24;;;;;;;23.35;3.33;;;6.30;99.90;;;;;;4739580;30;20513;-91
2023/01/26 13:27:26;;;;;;;15.95;1.60;;;7.60;99.90;;;;;;4998407;23;20065;-92
2023/01/26 13:34:15;;;;;;;13.45;1.70;;;7.60;99.90;;;;;;4842943;23;20057;-92
2023/01/26 13:37:33;;;;;;;16.40;2.28;;;7.60;99.90;;;;;;4824925;29;20095;-91
2023/01/26 13:50:50;;;;;;;12.48;1.63;;;7.60;99.90;;;;;;4750767;30;20104;-89
2023/01/26 13:54:00;;;;;;;14.73;1.80;;;7.60;99.90;;;;;;4735928;30;20044;-91
2023/01/26 13:57:18;;;;;;;13.13;1.88;;;7.50;99.90;;;;;;4765555;30;20083;-94
2023/01/26 15:00:26;;;;;;;17.80;2.20;;;7.40;99.90;;;;;;4765557;30;20577;-92
2023/01/26 15:03:40;;;;;;;14.40;1.83;;;7.40;99.90;;;;;;4762557;30;20115;-95
2023/01/26 15:18:33;;;;;;;15.50;2.30;;;7.40;99.90;;;;;;4826989;29;20046;-95
2023/01/26 15:25:25;;;;;;;15.60;2.35;;;7.40;99.90;;;;;;5033592;23;20150;-93
2023/01/26 16:34:19;;;;;;;16.13;3.25;;;7.00;99.90;;;;;;4077138;24;20021;31
2023/01/26 16:36:58;;;;;;;;;;;;;;;;;;;;;
2023/01/26 18:47:53;;;;;;;21.77;4.07;;;5.80;99.90;;;;;;4926340;23;20054;-91
2023/01/26 18:50:28;;;;;;;18.52;3.63;;;5.80;99.90;;;;;;4848505;24;20118;-91
2023/01/26 18:53:12;;;;;;;24.15;4.00;;;5.80;99.90;;;;;;4827931;29;20046;-96
2023/01/26 18:56:10;;;;;;;24.95;3.53;;;5.70;99.90;;;;;;4812611;29;20054;-96
2023/01/26 18:58:43;;;;;;;17.23;3.45;;;5.60;99.90;;;;;;4834849;29;20083;-93
2023/01/26 19:05:43;;;;;;;23.70;3.55;;;5.60;99.90;;;;;;4804743;29;20062;-92
2023/01/26 20:01:45;;;;;;;;;;;;;;;;;;;;;
2023/01/26 20:06:12;;;;;;;;;;;;;;;;;;;;;
2023/01/26 20:12:26;;;;;;;22.48;7.07;;;5.00;99.90;;;;;;4837847;29;20095;-95
2023/01/26 20:15:57;;;;;;;;;;;;;;;;;;;;;
2023/01/26 20:21:46;;;;;;;11.07;2.97;;;4.90;99.90;;;;;;5321211;23;19962;31
2023/01/26 22:19:03;;;;;;;;;;;;;;;;;;;;;
